Terminal Aerodrome Forecast
Issued by NWS Dodge City, KS

Home | Current Version | Previous Version | Text Only | Print | Product List | Glossary On
Versions: 1 2 3 4 5 6 7 8 9 10 11 12 13 14 15 16 17 18 19 20 21 22 23 24 25 26 27 28 29 30 31 32 33 34 35 36 37 38 39 40 41 42
000
FTUS43 KDDC 290221 AAC
TAFDDC
TAF AMD
KDDC 290221Z 2902/2924 VRB20G30KT P6SM VCTS BKN050CB
      TEMPO 2902/2904 3SM TSRA OVC030CB
     FM290500 18008KT P6SM BKN120
     FM291100 34011KT 5SM BR BKN005
     FM291400 36008KT P6SM SCT030=

USA.gov is the U.S. government's official web portal to all federal, state and local government web resources and services.